Time;durP1;ratioP1;P1;durP2;ratioP2;P2;SDS_P1;SDS_P2;PMS_P1;PMS_P2;Temp;Humidity;BMP_temperature;BMP_pressure;BME280_temperature;BME280_humidity;BME280_pressure;Samples;Min_cycle;Max_cycle;Signal;HPM_P1;HPM_P2
2022/06/27 00:01:54;;;;;;;12.90;12.30;;;20.50;99.90;;;;;;4971457;28;20462;-78
2022/06/27 00:04:21;;;;;;;12.27;11.70;;;20.50;99.90;;;;;;4971437;28;20452;-78
2022/06/27 00:06:49;;;;;;;12.80;12.30;;;20.50;99.90;;;;;;4971975;28;20462;-78
2022/06/27 00:09:16;;;;;;;11.60;11.10;;;20.50;99.90;;;;;;4971250;28;20447;-78
2022/06/27 00:11:42;;;;;;;12.30;11.70;;;20.50;99.90;;;;;;4971394;28;20467;-78
2022/06/27 00:14:09;;;;;;;12.40;11.70;;;20.50;99.90;;;;;;4971201;28;20455;-78
2022/06/27 00:16:36;;;;;;;11.10;10.70;;;20.60;99.90;;;;;;4972814;28;20455;-77
2022/06/27 00:19:03;;;;;;;11.10;10.60;;;20.60;99.90;;;;;;4975059;28;20466;-77
2022/06/27 00:21:30;;;;;;;13.60;13.00;;;20.60;99.90;;;;;;4975165;28;20813;-73
2022/06/27 00:23:59;;;;;;;16.53;15.70;;;20.50;99.90;;;;;;4975071;28;20462;-73
2022/06/27 00:26:25;;;;;;;24.90;23.70;;;20.30;99.90;;;;;;4975109;28;20462;-70
2022/06/27 00:28:52;;;;;;;28.40;26.90;;;20.00;99.90;;;;;;4975122;28;20455;-72
2022/06/27 00:31:19;;;;;;;30.90;28.93;;;19.80;99.90;;;;;;4974981;28;20448;-74
2022/06/27 00:33:46;;;;;;;33.20;31.20;;;19.50;99.90;;;;;;4976097;28;20456;-72
2022/06/27 00:36:12;;;;;;;31.37;29.53;;;19.30;99.90;;;;;;4975856;28;20463;-72
2022/06/27 00:38:40;;;;;;;33.67;31.57;;;19.20;99.90;;;;;;4974664;28;20455;-72
2022/06/27 00:41:08;;;;;;;32.07;30.07;;;19.10;99.90;;;;;;4974719;28;20502;-75
2022/06/27 00:43:35;;;;;;;32.00;30.37;;;19.00;99.90;;;;;;4974752;28;20458;-71
2022/06/27 00:46:01;;;;;;;33.60;31.80;;;18.70;99.90;;;;;;4974656;28;20455;-72
2022/06/27 00:48:28;;;;;;;34.03;31.00;;;18.60;99.90;;;;;;4974721;28;20452;-71
2022/06/27 00:50:56;;;;;;;34.20;32.30;;;18.50;99.90;;;;;;4974285;28;20480;-69
2022/06/27 00:53:23;;;;;;;35.30;33.10;;;18.50;99.90;;;;;;4974452;28;20482;-70
2022/06/27 00:55:50;;;;;;;32.00;30.20;;;18.40;99.90;;;;;;4974476;28;20476;-69
2022/06/27 00:58:18;;;;;;;32.87;30.53;;;18.30;99.90;;;;;;4974333;28;20945;-70
2022/06/27 01:00:45;;;;;;;31.00;29.13;;;18.10;99.90;;;;;;4974599;28;20495;-69
2022/06/27 01:03:12;;;;;;;30.00;28.70;;;18.00;99.90;;;;;;4974434;28;20973;-69
2022/06/27 04:30:40;;;;;;;28.00;26.50;;;18.00;99.90;;;;;;5992263;23;20412;-73
2022/06/27 04:43:28;;;;;;;27.77;25.97;;;18.10;99.90;;;;;;5226900;23;21007;-72
2022/06/27 04:45:57;;;;;;;25.50;24.20;;;18.20;99.90;;;;;;4998088;28;20498;-72
2022/06/27 04:48:26;;;;;;;23.93;22.73;;;18.50;99.90;;;;;;4999011;28;20536;-75
2022/06/27 04:50:53;;;;;;;20.40;19.50;;;18.60;99.90;;;;;;5000139;28;20451;-72
2022/06/27 04:53:20;;;;;;;17.37;16.30;;;18.90;99.90;;;;;;4997923;28;20458;-76
2022/06/27 04:55:49;;;;;;;15.60;14.87;;;19.10;99.90;;;;;;4998510;28;20469;-73
2022/06/27 04:58:17;;;;;;;15.10;14.30;;;19.30;99.90;;;;;;4999584;28;20445;-73
2022/06/27 05:00:44;;;;;;;14.13;13.13;;;19.40;99.90;;;;;;4998468;28;20479;-73
2022/06/27 05:03:12;;;;;;;13.93;13.07;;;19.40;99.90;;;;;;5000406;28;20450;-73
2022/06/27 05:05:39;;;;;;;14.63;13.90;;;19.70;99.90;;;;;;4995451;28;20464;-72
2022/06/27 05:08:06;;;;;;;14.27;13.60;;;19.80;99.90;;;;;;5002646;28;20510;-72
2022/06/27 05:10:33;;;;;;;14.50;13.67;;;19.90;99.90;;;;;;5001346;28;20450;-73
2022/06/27 05:13:02;;;;;;;14.53;13.73;;;20.20;99.90;;;;;;5003366;28;20461;-73
2022/06/27 05:15:29;;;;;;;14.93;14.23;;;20.60;99.90;;;;;;5003252;28;20455;-75
2022/06/27 05:17:55;;;;;;;14.53;13.80;;;20.80;99.90;;;;;;5002416;28;20434;-75
2022/06/27 05:20:24;;;;;;;14.57;13.97;;;21.30;99.90;;;;;;5004158;28;20513;-74
2022/06/27 05:22:50;;;;;;;14.30;13.70;;;21.60;99.90;;;;;;5004162;28;20454;-73
2022/06/27 05:25:17;;;;;;;14.27;13.13;;;22.10;99.90;;;;;;5002415;28;20786;-75
2022/06/27 05:27:44;;;;;;;15.27;14.37;;;22.40;99.90;;;;;;5002244;28;20438;-77
2022/06/27 05:30:12;;;;;;;13.97;13.23;;;22.90;99.90;;;;;;5003166;28;20840;-77
2022/06/27 05:32:38;;;;;;;13.33;12.83;;;23.30;99.90;;;;;;5003236;28;20442;-78
2022/06/27 05:35:06;;;;;;;15.20;14.40;;;23.70;99.90;;;;;;5002048;28;20461;-76
2022/06/27 05:37:37;;;;;;;14.30;13.80;;;23.60;99.90;;;;;;5000987;28;21551;-75
2022/06/27 05:40:05;;;;;;;14.10;13.37;;;23.70;99.90;;;;;;4999084;28;20765;-77
2022/06/27 05:42:34;;;;;;;13.50;12.90;;;23.60;99.90;;;;;;4984741;28;20481;-75
2022/06/27 05:45:01;;;;;;;12.70;12.20;;;23.10;99.90;;;;;;4981524;28;20456;-75
2022/06/27 05:47:29;;;;;;;15.43;14.43;;;22.90;99.90;;;;;;4981838;28;20447;-76
2022/06/27 05:49:56;;;;;;;15.97;15.07;;;22.70;99.90;;;;;;4983145;28;20530;-77
2022/06/27 05:52:23;;;;;;;15.27;14.57;;;22.70;99.90;;;;;;4981612;28;20451;-77
2022/06/27 05:54:51;;;;;;;14.23;13.53;;;22.70;99.90;;;;;;4981370;28;21019;-76
2022/06/27 05:57:19;;;;;;;14.50;13.90;;;22.80;99.90;;;;;;4981044;28;20981;-76
2022/06/27 05:59:46;;;;;;;13.90;13.30;;;22.80;99.90;;;;;;4981897;28;20933;-77
2022/06/27 06:02:13;;;;;;;14.87;14.30;;;22.90;99.90;;;;;;4982698;28;20447;-77
2022/06/27 06:04:40;;;;;;;15.13;14.53;;;22.80;99.90;;;;;;4987332;28;20514;-78
2022/06/27 06:07:07;;;;;;;14.10;13.50;;;22.80;99.90;;;;;;4998041;28;20490;-75
2022/06/27 06:09:33;;;;;;;14.87;14.17;;;22.80;99.90;;;;;;4994820;28;20447;-76
2022/06/27 06:12:01;;;;;;;15.07;14.27;;;22.70;99.90;;;;;;4992601;28;20454;-78
2022/06/27 06:14:28;;;;;;;14.70;14.10;;;22.60;99.90;;;;;;4991779;28;20454;-78
2022/06/27 06:16:55;;;;;;;14.20;13.50;;;22.60;99.90;;;;;;4988695;28;20971;-78
2022/06/27 06:19:22;;;;;;;14.07;13.27;;;22.70;99.90;;;;;;4984107;28;20889;-79
2022/06/27 06:21:49;;;;;;;14.23;13.50;;;22.80;99.90;;;;;;4981176;28;20877;-79
2022/06/27 06:24:15;;;;;;;13.77;12.90;;;22.80;99.90;;;;;;4973307;28;20559;-78
2022/06/27 06:26:42;;;;;;;14.73;13.93;;;22.40;99.90;;;;;;4989389;28;20451;-78
2022/06/27 06:29:14;;;;;;;14.73;14.13;;;22.10;99.90;;;;;;4992567;28;20450;-77
2022/06/27 06:31:43;;;;;;;15.73;14.93;;;22.10;99.90;;;;;;4992828;28;20940;-78
2022/06/27 06:34:10;;;;;;;14.93;13.93;;;22.10;99.90;;;;;;4984678;28;21008;-78
2022/06/27 06:36:38;;;;;;;14.10;13.40;;;;;;;;;;4972890;28;20464;-78
2022/06/27 06:39:06;;;;;;;13.33;12.80;;;22.20;99.90;;;;;;4972789;28;20475;-79
2022/06/27 06:41:33;;;;;;;13.17;12.10;;;22.60;99.90;;;;;;4981039;28;20506;-80
2022/06/27 06:44:01;;;;;;;12.33;11.73;;;23.40;99.90;;;;;;4992200;28;20487;-80
2022/06/27 06:46:30;;;;;;;13.20;12.70;;;23.90;99.90;;;;;;4992101;28;20514;-80
2022/06/27 06:49:02;;;;;;;12.20;11.80;;;23.90;99.90;;;;;;4992338;28;20462;-81
2022/06/27 06:51:31;;;;;;;12.97;12.47;;;24.30;99.90;;;;;;4992068;28;20454;-82
2022/06/27 06:53:58;;;;;;;12.93;12.33;;;24.60;99.90;;;;;;4992061;28;20466;-83
2022/06/27 06:56:25;;;;;;;13.27;12.77;;;25.20;99.90;;;;;;4992560;28;20822;-83
2022/06/27 06:58:51;;;;;;;12.47;12.00;;;25.50;99.90;;;;;;4991780;28;20824;-81
2022/06/27 07:01:18;;;;;;;12.80;12.30;;;25.30;99.90;;;;;;4992068;28;20493;-75
2022/06/27 07:03:47;;;;;;;13.70;13.00;;;25.00;99.90;;;;;;4989250;28;20466;-75
2022/06/27 07:06:15;;;;;;;13.30;12.63;;;24.50;99.90;;;;;;4989325;28;20459;-74
2022/06/27 07:08:44;;;;;;;11.93;11.50;;;24.50;99.90;;;;;;4990144;28;20506;-76
2022/06/27 07:11:12;;;;;;;12.37;11.97;;;24.90;99.90;;;;;;4990195;28;20469;-75
2022/06/27 07:13:39;;;;;;;11.73;11.33;;;25.60;99.90;;;;;;4991943;28;20451;-75
2022/06/27 07:16:07;;;;;;;12.40;12.00;;;26.50;99.90;;;;;;4989563;28;20972;-75
2022/06/27 07:18:34;;;;;;;13.00;12.23;;;27.00;99.90;;;;;;4991369;28;20455;-75
2022/06/27 07:21:03;;;;;;;12.90;12.30;;;27.30;99.90;;;;;;4991205;28;20491;-75
2022/06/27 07:23:29;;;;;;;13.00;12.47;;;27.10;99.90;;;;;;4991418;28;20980;-75
2022/06/27 07:25:56;;;;;;;12.40;12.00;;;26.70;99.90;;;;;;4991698;28;20951;-75
2022/06/27 07:28:26;;;;;;;13.30;12.70;;;27.20;99.90;;;;;;4991600;28;20890;-75
2022/06/27 07:30:53;;;;;;;12.70;12.30;;;27.60;99.90;;;;;;4989481;28;20450;-75
2022/06/27 07:33:20;;;;;;;13.00;12.50;;;28.10;99.90;;;;;;4991305;28;20873;-75
2022/06/27 07:35:46;;;;;;;12.80;12.37;;;28.40;99.90;;;;;;4991282;28;20685;-75
2022/06/27 07:38:14;;;;;;;13.30;12.80;;;28.50;99.90;;;;;;4991305;28;20951;-75
2022/06/27 07:40:42;;;;;;;12.50;12.03;;;28.10;99.90;;;;;;4989349;28;20565;-75
2022/06/27 07:43:13;;;;;;;12.27;11.80;;;27.70;99.90;;;;;;4991003;28;20487;-75
2022/06/27 07:45:41;;;;;;;13.17;12.67;;;27.40;99.90;;;;;;4991348;28;20465;-75
2022/06/27 07:48:09;;;;;;;13.67;12.97;;;26.80;99.90;;;;;;4989038;28;20955;-75
2022/06/27 07:50:40;;;;;;;13.07;12.57;;;26.80;99.90;;;;;;4990908;28;20490;-75
2022/06/27 07:53:15;;;;;;;12.80;12.20;;;26.80;99.90;;;;;;4990772;28;20454;-74
2022/06/27 07:55:46;;;;;;;12.43;11.97;;;26.80;99.90;;;;;;4991069;28;20450;-74
2022/06/27 07:58:17;;;;;;;13.37;12.87;;;26.40;99.90;;;;;;4990915;28;20451;-74
2022/06/27 08:00:45;;;;;;;13.20;12.50;;;26.70;99.90;;;;;;4989040;28;20577;-75
2022/06/27 08:05:58;;;;;;;14.17;13.23;;;26.70;99.90;;;;;;4991060;28;20566;-75
2022/06/27 08:08:26;;;;;;;13.77;13.07;;;26.40;99.90;;;;;;4989503;28;20458;-74
2022/06/27 08:10:55;;;;;;;12.23;11.73;;;25.90;99.90;;;;;;4990759;28;20547;-75
2022/06/27 08:13:22;;;;;;;12.80;12.30;;;25.90;99.90;;;;;;4990941;28;20454;-75
2022/06/27 08:15:50;;;;;;;12.73;12.23;;;26.50;99.90;;;;;;4990791;28;20923;-75
2022/06/27 08:18:16;;;;;;;13.77;13.27;;;26.80;99.90;;;;;;4990431;28;20830;-75
2022/06/27 08:20:44;;;;;;;13.00;12.57;;;27.70;99.90;;;;;;4991158;28;20458;-75
2022/06/27 08:23:10;;;;;;;12.30;11.90;;;28.10;99.90;;;;;;4991149;28;20454;-74
2022/06/27 08:25:37;;;;;;;12.70;12.30;;;28.00;99.90;;;;;;4990785;28;20439;-74
2022/06/27 08:28:06;;;;;;;12.43;12.03;;;28.60;99.60;;;;;;4990637;28;20443;-74
2022/06/27 08:30:33;;;;;;;13.20;12.70;;;28.60;98.70;;;;;;4990864;28;20497;-76
2022/06/27 08:33:00;;;;;;;13.53;12.93;;;28.70;98.40;;;;;;4990481;28;20793;-75
2022/06/27 08:35:27;;;;;;;13.73;13.13;;;29.20;97.90;;;;;;4995361;28;20455;-75
2022/06/27 08:37:55;;;;;;;14.03;13.53;;;29.70;96.90;;;;;;4992881;28;20453;-75
2022/06/27 08:40:22;;;;;;;13.47;12.63;;;28.60;95.80;;;;;;4994494;28;20477;-75
2022/06/27 08:42:49;;;;;;;14.13;13.60;;;28.60;96.00;;;;;;4994382;28;20498;-75
2022/06/27 08:45:23;;;;;;;12.60;12.20;;;28.60;97.90;;;;;;4994513;28;20454;-74
2022/06/27 08:47:50;;;;;;;14.80;14.27;;;28.30;97.30;;;;;;4994427;28;20822;-75
2022/06/27 08:50:17;;;;;;;14.47;13.93;;;28.90;97.20;;;;;;4994382;28;20463;-76
2022/06/27 08:52:45;;;;;;;13.63;13.13;;;29.70;96.90;;;;;;4994262;28;20446;-75
2022/06/27 08:55:12;;;;;;;13.50;13.10;;;29.50;96.00;;;;;;4994412;28;20454;-76
2022/06/27 08:57:42;;;;;;;13.37;12.77;;;29.00;96.80;;;;;;4992851;28;20970;-75
2022/06/27 09:00:11;;;;;;;13.03;12.60;;;27.90;99.10;;;;;;4994468;28;20509;-76
2022/06/27 09:02:42;;;;;;;12.33;11.93;;;27.70;99.20;;;;;;4994157;28;21015;-75
2022/06/27 09:05:17;;;;;;;13.30;12.90;;;27.30;99.90;;;;;;4994246;28;20455;-76
2022/06/27 09:07:50;;;;;;;14.90;13.83;;;27.70;99.90;;;;;;4994019;28;20826;-75
2022/06/27 09:10:29;;;;;;;14.30;13.17;;;27.90;99.80;;;;;;4993868;28;20462;-75
2022/06/27 09:12:57;;;;;;;12.70;12.20;;;27.40;99.90;;;;;;4994181;28;20456;-74
2022/06/27 09:15:29;;;;;;;13.50;12.80;;;26.80;99.90;;;;;;4993960;28;20459;-74
2022/06/27 09:18:03;;;;;;;13.23;12.73;;;26.80;99.90;;;;;;4993962;28;20990;-74
2022/06/27 09:20:49;;;;;;;12.00;11.60;;;27.40;99.90;;;;;;4993710;28;20552;-74
2022/06/27 09:23:37;;;;;;;12.50;11.83;;;26.70;99.90;;;;;;4995879;28;20457;-74
2022/06/27 09:26:06;;;;;;;13.40;12.80;;;26.10;99.90;;;;;;4993609;28;20461;-74
2022/06/27 09:28:50;;;;;;;12.73;12.03;;;26.20;99.90;;;;;;4993506;28;20541;-74
2022/06/27 09:31:36;;;;;;;12.07;11.57;;;26.80;99.90;;;;;;4993644;28;20452;-75
2022/06/27 09:34:08;;;;;;;12.77;12.37;;;26.80;99.90;;;;;;4993645;28;20506;-74
2022/06/27 09:36:37;;;;;;;12.90;12.43;;;27.00;99.90;;;;;;4993527;28;20791;-74
2022/06/27 09:39:06;;;;;;;13.30;12.80;;;27.10;99.90;;;;;;4993326;28;20450;-75
2022/06/27 09:41:35;;;;;;;12.07;11.67;;;26.90;99.90;;;;;;4993318;28;20497;-74
2022/06/27 09:44:10;;;;;;;12.20;11.80;;;26.70;99.90;;;;;;4974436;28;20695;-74
2022/06/27 09:46:42;;;;;;;13.30;12.83;;;26.40;99.90;;;;;;4974717;28;20550;-74
2022/06/27 09:49:14;;;;;;;12.93;12.50;;;26.40;99.90;;;;;;4973622;28;20462;-74
2022/06/27 09:51:42;;;;;;;11.63;11.23;;;26.40;99.90;;;;;;4975018;28;20454;-74
2022/06/27 09:54:11;;;;;;;13.07;12.63;;;27.20;99.90;;;;;;4974705;28;20447;-75
2022/06/27 09:56:39;;;;;;;13.10;12.50;;;28.40;99.90;;;;;;4974243;28;20955;-73
2022/06/27 09:59:07;;;;;;;13.87;13.47;;;29.70;98.50;;;;;;4973657;28;20511;-75
2022/06/27 10:01:35;;;;;;;12.57;12.07;;;31.00;95.60;;;;;;4973528;28;20593;-75
2022/06/27 10:04:04;;;;;;;13.20;12.70;;;30.80;95.10;;;;;;4973426;28;20819;-75
2022/06/27 10:06:32;;;;;;;13.60;13.10;;;30.70;95.10;;;;;;4973282;28;20452;-74
2022/06/27 10:09:00;;;;;;;13.30;12.90;;;;;;;;;;4973131;28;20840;-75
2022/06/27 10:11:27;;;;;;;13.40;13.00;;;30.60;94.30;;;;;;4973211;28;20459;-74
2022/06/27 10:14:12;;;;;;;13.00;12.50;;;30.50;93.90;;;;;;4973554;28;20462;-75
2022/06/27 10:16:54;;;;;;;13.73;13.23;;;30.20;94.60;;;;;;4971738;28;20463;-74
2022/06/27 10:19:22;;;;;;;12.67;12.17;;;30.40;94.80;;;;;;4973186;28;20460;-75
2022/06/27 10:21:51;;;;;;;13.07;12.47;;;29.80;95.10;;;;;;4973042;28;20680;-74
2022/06/27 10:24:34;;;;;;;13.57;12.97;;;29.30;96.70;;;;;;4972958;28;20458;-74
2022/06/27 10:27:04;;;;;;;13.30;12.80;;;28.70;98.30;;;;;;4973043;28;20857;-75
2022/06/27 10:29:48;;;;;;;13.40;12.90;;;28.00;99.00;;;;;;4972923;28;20455;-75
2022/06/27 10:32:53;;;;;;;12.63;11.93;;;27.60;99.50;;;;;;4972929;28;20790;-74
2022/06/27 10:35:24;;;;;;;13.87;13.20;;;26.70;99.90;;;;;;4972861;28;20451;-75
2022/06/27 10:37:52;;;;;;;13.53;13.03;;;25.80;99.90;;;;;;4973120;28;20455;-75
2022/06/27 10:40:43;;;;;;;14.17;13.63;;;25.70;99.90;;;;;;4973056;28;20949;-73
2022/06/27 10:43:09;;;;;;;13.30;12.70;;;25.60;99.90;;;;;;4985557;28;20491;-72
2022/06/27 10:45:38;;;;;;;14.13;13.53;;;25.50;99.90;;;;;;4992399;28;20486;-73
2022/06/27 10:48:34;;;;;;;14.87;13.80;;;25.70;99.90;;;;;;4990422;28;20454;-73
2022/06/27 10:51:21;;;;;;;13.00;12.20;;;25.60;99.90;;;;;;4992306;28;20478;-72
2022/06/27 10:53:50;;;;;;;12.50;12.00;;;25.70;99.90;;;;;;4990360;28;20725;-73
2022/06/27 10:56:43;;;;;;;12.97;12.37;;;25.20;99.90;;;;;;4993910;28;20461;-73
2022/06/27 10:59:54;;;;;;;13.00;12.40;;;25.20;99.90;;;;;;4969446;28;20963;-73
2022/06/27 11:02:22;;;;;;;12.83;12.23;;;25.40;99.90;;;;;;4991979;28;20490;-74
2022/06/27 11:04:49;;;;;;;12.53;12.13;;;25.60;99.90;;;;;;4991773;28;20561;-74
2022/06/27 11:07:17;;;;;;;13.00;12.50;;;25.60;99.90;;;;;;4991926;28;20868;-74
2022/06/27 11:09:47;;;;;;;13.00;12.50;;;25.60;99.90;;;;;;4989895;28;20477;-74
2022/06/27 11:12:16;;;;;;;12.97;12.47;;;25.50;99.90;;;;;;4991865;28;20443;-74
2022/06/27 11:14:48;;;;;;;13.07;12.60;;;25.50;99.90;;;;;;4992104;28;20924;-74
2022/06/27 11:17:48;;;;;;;13.37;12.53;;;25.40;99.90;;;;;;4991794;28;20462;-74
2022/06/27 11:20:23;;;;;;;12.47;11.97;;;25.50;99.90;;;;;;4893776;29;20467;-74
2022/06/27 11:22:52;;;;;;;11.90;11.30;;;25.40;99.90;;;;;;4893565;29;20600;-75
2022/06/27 11:25:24;;;;;;;12.90;12.40;;;25.20;99.90;;;;;;4943655;28;20612;-74
2022/06/27 11:27:56;;;;;;;13.07;12.33;;;24.50;99.90;;;;;;4991556;28;20458;-74
2022/06/27 11:33:20;;;;;;;13.27;12.40;;;24.10;99.90;;;;;;4991413;28;20426;-74
2022/06/27 11:35:47;;;;;;;12.10;11.70;;;24.20;99.90;;;;;;4991286;28;20450;-75
2022/06/27 11:38:30;;;;;;;12.27;11.80;;;24.10;99.90;;;;;;4991212;28;20455;-75
2022/06/27 11:41:07;;;;;;;12.70;12.00;;;24.10;99.90;;;;;;4991386;28;20484;-74
2022/06/27 11:43:56;;;;;;;13.37;12.73;;;24.10;99.90;;;;;;4990967;28;20496;-74
2022/06/27 11:46:30;;;;;;;13.60;12.90;;;24.20;99.90;;;;;;4990655;28;20452;-73
2022/06/27 11:49:01;;;;;;;12.87;12.13;;;24.10;99.90;;;;;;4989301;28;20860;-73
2022/06/27 11:51:32;;;;;;;12.37;11.80;;;24.00;99.90;;;;;;4990984;28;20819;-73
2022/06/27 11:54:02;;;;;;;14.17;13.47;;;23.90;99.90;;;;;;4990892;28;20455;-74
2022/06/27 11:56:32;;;;;;;12.60;11.90;;;23.60;99.90;;;;;;4990620;28;20505;-72
2022/06/27 11:59:00;;;;;;;13.40;12.90;;;23.60;99.90;;;;;;4990950;28;20461;-72
2022/06/27 12:01:27;;;;;;;12.50;12.00;;;23.50;99.90;;;;;;4990893;28;20458;-72
2022/06/27 12:04:11;;;;;;;13.73;13.10;;;23.50;99.90;;;;;;4990772;28;20853;-72
2022/06/27 12:06:45;;;;;;;14.03;13.23;;;23.40;99.90;;;;;;4990983;28;20446;-72
2022/06/27 12:09:12;;;;;;;13.70;13.10;;;23.20;99.90;;;;;;4990790;28;20470;-73
2022/06/27 12:11:50;;;;;;;14.33;13.63;;;23.20;99.90;;;;;;4989919;28;20955;-72
2022/06/27 12:14:16;;;;;;;13.93;13.33;;;23.10;99.90;;;;;;4990606;28;20459;-72
2022/06/27 12:16:48;;;;;;;14.13;13.43;;;23.10;99.90;;;;;;4990453;28;20458;-72
2022/06/27 12:19:15;;;;;;;14.30;13.30;;;23.10;99.90;;;;;;4990517;28;20459;-72
2022/06/27 12:21:43;;;;;;;14.70;13.83;;;23.10;99.90;;;;;;4990848;28;20466;-72
2022/06/27 12:24:10;;;;;;;13.77;13.17;;;23.20;99.90;;;;;;4990837;28;20501;-73
2022/06/27 12:26:37;;;;;;;14.10;13.40;;;23.20;99.90;;;;;;4990842;28;20554;-73
2022/06/27 12:29:06;;;;;;;13.37;12.67;;;23.20;99.90;;;;;;4990530;28;20681;-72
2022/06/27 12:31:33;;;;;;;14.00;13.07;;;23.10;99.90;;;;;;4990601;28;20457;-72
2022/06/27 12:34:00;;;;;;;13.33;12.70;;;23.00;99.90;;;;;;4990135;28;20863;-73
2022/06/27 12:36:28;;;;;;;13.27;12.67;;;23.00;99.90;;;;;;4990537;28;20449;-73
2022/06/27 12:38:55;;;;;;;13.27;12.60;;;23.00;99.90;;;;;;4990701;28;20949;-72
2022/06/27 12:41:22;;;;;;;13.20;12.50;;;23.10;99.90;;;;;;4990284;28;20470;-73
2022/06/27 12:43:49;;;;;;;12.70;12.20;;;23.00;99.90;;;;;;4990022;28;20594;-73
2022/06/27 12:46:19;;;;;;;12.90;12.40;;;22.90;99.90;;;;;;4990119;28;20449;-73
2022/06/27 12:48:46;;;;;;;13.87;13.17;;;23.00;99.90;;;;;;4990231;28;20953;-73
2022/06/27 12:51:13;;;;;;;13.73;13.03;;;23.10;99.90;;;;;;4989953;28;20894;-73
2022/06/27 12:53:40;;;;;;;12.70;12.23;;;;;;;;;;4990335;28;20458;-73
2022/06/27 12:56:07;;;;;;;14.43;13.73;;;23.10;99.90;;;;;;4990464;28;20457;-73
2022/06/27 12:58:34;;;;;;;13.77;13.07;;;23.10;99.90;;;;;;4990144;28;20462;-73
2022/06/27 13:01:02;;;;;;;13.50;12.70;;;23.10;99.90;;;;;;4990215;28;20852;-73
2022/06/27 13:03:30;;;;;;;14.60;13.83;;;23.20;99.90;;;;;;4990125;28;20517;-73
2022/06/27 13:05:57;;;;;;;14.40;13.70;;;23.10;99.90;;;;;;4990311;28;20477;-73
2022/06/27 13:08:24;;;;;;;13.77;13.03;;;23.10;99.90;;;;;;4990151;28;20450;-74
2022/06/27 13:10:51;;;;;;;13.53;12.93;;;23.20;99.90;;;;;;4990053;28;20462;-73
2022/06/27 13:13:18;;;;;;;12.73;12.23;;;23.20;99.90;;;;;;4989969;28;20960;-74
2022/06/27 13:15:45;;;;;;;13.20;12.60;;;23.30;99.90;;;;;;4989904;28;21059;-73
2022/06/27 13:18:12;;;;;;;12.10;11.60;;;23.30;99.90;;;;;;4990312;28;20451;-73
2022/06/27 13:20:40;;;;;;;13.40;12.80;;;23.50;99.90;;;;;;4990211;28;20491;-73
2022/06/27 13:23:06;;;;;;;13.00;12.40;;;23.30;99.90;;;;;;4990971;28;20494;-74
2022/06/27 13:25:33;;;;;;;11.83;11.37;;;23.10;99.90;;;;;;4993483;28;20451;-77
2022/06/27 13:28:00;;;;;;;12.87;12.33;;;22.90;99.90;;;;;;4993396;28;20831;-77
2022/06/27 13:30:27;;;;;;;11.30;10.80;;;22.90;99.90;;;;;;4993641;28;20459;-75
2022/06/27 13:32:54;;;;;;;12.30;11.47;;;22.80;99.90;;;;;;4993207;28;20497;-75
2022/06/27 13:35:20;;;;;;;11.40;10.90;;;22.80;99.90;;;;;;4992990;28;20458;-75
2022/06/27 13:37:48;;;;;;;12.73;11.93;;;23.00;99.90;;;;;;4992825;28;20458;-75
2022/06/27 13:40:15;;;;;;;12.30;11.80;;;23.00;99.90;;;;;;4992860;28;20462;-75
2022/06/27 13:42:42;;;;;;;12.83;12.10;;;23.20;99.90;;;;;;4992799;28;20866;-75
2022/06/27 13:45:10;;;;;;;13.97;13.40;;;23.30;99.90;;;;;;4992972;28;20450;-75
2022/06/27 13:47:36;;;;;;;12.73;12.23;;;23.30;99.90;;;;;;4992889;28;20454;-75
2022/06/27 13:50:04;;;;;;;11.10;10.60;;;23.40;99.90;;;;;;4992766;28;20459;-75
2022/06/27 13:52:34;;;;;;;11.90;11.50;;;23.60;99.90;;;;;;4992701;28;20471;-75
2022/06/27 13:55:03;;;;;;;11.60;11.20;;;23.60;99.90;;;;;;4992635;28;20830;-76
2022/06/27 13:57:30;;;;;;;12.40;11.90;;;23.70;99.90;;;;;;4992560;28;20462;-75
2022/06/27 13:59:57;;;;;;;10.90;10.50;;;23.90;99.90;;;;;;4992852;28;20450;-75
2022/06/27 14:02:23;;;;;;;12.03;11.53;;;24.00;99.90;;;;;;4992530;28;20455;-75
2022/06/27 14:04:50;;;;;;;11.97;11.50;;;23.80;99.90;;;;;;4992544;28;20458;-75
2022/06/27 14:10:14;;;;;;;12.13;11.63;;;23.70;99.90;;;;;;4957017;28;20446;-75
2022/06/27 14:12:41;;;;;;;12.27;11.67;;;23.60;99.90;;;;;;4984447;28;20446;-74
2022/06/27 14:15:08;;;;;;;12.80;12.00;;;23.70;99.90;;;;;;4990265;28;20959;-75
2022/06/27 14:17:36;;;;;;;10.87;10.47;;;23.60;99.90;;;;;;4983053;28;20445;-75
2022/06/27 14:20:04;;;;;;;12.43;11.73;;;23.60;99.90;;;;;;4982001;28;20851;-74
2022/06/27 14:22:31;;;;;;;10.90;10.50;;;23.60;99.90;;;;;;4981246;28;20501;-74
2022/06/27 14:24:58;;;;;;;12.80;12.30;;;23.80;99.90;;;;;;4981266;28;20460;-73
2022/06/27 14:27:26;;;;;;;12.80;12.20;;;24.00;99.90;;;;;;4982126;28;20519;-76
2022/06/27 14:29:53;;;;;;;12.60;12.00;;;24.10;99.90;;;;;;4983073;28;20451;-76
2022/06/27 14:32:19;;;;;;;12.97;12.37;;;24.10;99.90;;;;;;4981039;28;20444;-76
2022/06/27 14:34:46;;;;;;;12.70;12.10;;;24.30;99.90;;;;;;4980892;28;20441;-74
2022/06/27 14:37:13;;;;;;;13.40;12.77;;;24.10;99.90;;;;;;4987403;28;20505;-74
2022/06/27 14:39:40;;;;;;;12.73;12.07;;;24.20;99.90;;;;;;4982375;28;20451;-73
2022/06/27 14:42:07;;;;;;;12.43;11.93;;;24.40;99.90;;;;;;4980826;28;20840;-73
2022/06/27 14:44:35;;;;;;;12.03;11.63;;;24.20;99.90;;;;;;4981569;28;20927;-74
2022/06/27 14:47:03;;;;;;;11.70;11.30;;;23.90;99.90;;;;;;4981502;28;20451;-74
2022/06/27 14:49:30;;;;;;;11.60;11.20;;;23.90;99.90;;;;;;4982481;28;20443;-76
2022/06/27 14:51:57;;;;;;;12.10;11.60;;;24.10;99.90;;;;;;4981508;28;20494;-73
2022/06/27 14:54:24;;;;;;;12.43;11.87;;;24.10;99.90;;;;;;4981036;28;20446;-75
2022/06/27 14:56:51;;;;;;;13.87;13.17;;;24.30;99.90;;;;;;4983012;28;20446;-74
2022/06/27 14:59:18;;;;;;;14.00;13.20;;;24.50;99.90;;;;;;4981296;28;20451;-74
2022/06/27 15:01:46;;;;;;;12.43;11.93;;;24.70;99.90;;;;;;4975546;28;20459;-75
2022/06/27 15:04:12;;;;;;;13.13;12.53;;;24.60;99.90;;;;;;4972212;28;20496;-75
2022/06/27 15:06:39;;;;;;;12.80;12.30;;;24.60;99.90;;;;;;4972504;28;20964;-76
2022/06/27 15:09:06;;;;;;;12.53;12.13;;;24.70;99.90;;;;;;4972541;28;20458;-75
2022/06/27 15:11:44;;;;;;;12.03;11.63;;;25.00;99.90;;;;;;4972161;28;20982;-75
2022/06/27 15:14:12;;;;;;;11.37;10.97;;;24.90;99.90;;;;;;4972326;28;20455;-75
2022/06/27 15:16:44;;;;;;;11.30;10.80;;;24.80;99.90;;;;;;4971818;28;20455;-75
2022/06/27 15:19:14;;;;;;;11.60;11.20;;;24.80;99.90;;;;;;4972342;28;20495;-74
2022/06/27 15:21:41;;;;;;;11.40;11.00;;;24.60;99.90;;;;;;4973688;28;20510;-80
2022/06/27 15:24:09;;;;;;;12.30;11.90;;;24.50;99.90;;;;;;4973520;28;20483;-82
2022/06/27 15:26:36;;;;;;;12.30;11.87;;;24.40;99.90;;;;;;4973103;28;20458;-82
2022/06/27 15:29:03;;;;;;;12.27;11.67;;;24.40;99.90;;;;;;4973856;28;20483;-80
2022/06/27 15:31:31;;;;;;;12.23;11.63;;;24.50;99.90;;;;;;4972562;28;20463;-78
2022/06/27 15:33:57;;;;;;;11.83;11.43;;;24.40;99.90;;;;;;4971899;28;20555;-75
2022/06/27 15:36:26;;;;;;;11.63;11.13;;;24.40;99.90;;;;;;4972263;28;20506;-75
2022/06/27 15:38:53;;;;;;;12.10;11.70;;;24.60;99.90;;;;;;4972060;28;20452;-75
2022/06/27 15:41:19;;;;;;;13.33;12.63;;;24.60;99.90;;;;;;4972058;28;20840;-74
2022/06/27 15:43:47;;;;;;;12.80;12.20;;;24.50;99.90;;;;;;4972433;28;20498;-74
2022/06/27 15:46:14;;;;;;;13.20;12.60;;;24.20;99.90;;;;;;4970834;28;20474;-74
2022/06/27 15:48:41;;;;;;;12.73;12.23;;;24.40;99.90;;;;;;4971296;28;20506;-76
2022/06/27 15:51:08;;;;;;;12.57;11.83;;;24.40;99.90;;;;;;4971754;28;20949;-76
2022/06/27 15:53:36;;;;;;;12.60;12.00;;;24.50;99.90;;;;;;4971737;28;20952;-75
2022/06/27 15:56:04;;;;;;;13.43;12.77;;;24.40;99.90;;;;;;4972130;28;20456;-75
2022/06/27 15:58:30;;;;;;;13.07;12.57;;;24.30;99.90;;;;;;4972321;28;20463;-75
2022/06/27 16:00:57;;;;;;;12.80;12.30;;;24.20;99.90;;;;;;4972053;28;20489;-75
2022/06/27 16:03:26;;;;;;;13.53;12.97;;;24.10;99.90;;;;;;4972328;28;20827;-75
2022/06/27 16:05:54;;;;;;;13.23;12.43;;;23.90;99.90;;;;;;4972158;28;20452;-75
2022/06/27 16:08:22;;;;;;;14.30;13.60;;;24.00;99.90;;;;;;4971605;28;20474;-75
2022/06/27 16:10:51;;;;;;;13.10;12.60;;;23.90;99.90;;;;;;4971879;28;20616;-75
2022/06/27 16:13:18;;;;;;;13.50;12.90;;;23.60;99.90;;;;;;4971347;28;20527;-75
2022/06/27 16:15:45;;;;;;;13.60;12.97;;;23.50;99.90;;;;;;4971484;28;20462;-76
2022/06/27 16:18:12;;;;;;;13.40;12.90;;;23.50;99.90;;;;;;4972168;28;20467;-75
2022/06/27 16:20:40;;;;;;;13.73;13.03;;;23.40;99.90;;;;;;4971792;28;20460;-75
2022/06/27 16:23:08;;;;;;;13.23;12.70;;;23.30;99.90;;;;;;4971619;28;20534;-75